createdAt,value
2023-01-10T00:00:28.492Z,15.50
2023-01-10T00:02:56.581Z,4.50
2023-01-10T00:05:23.329Z,3.50
2023-01-10T00:07:49.973Z,2.75
2023-01-10T00:10:16.866Z,6.50
2023-01-10T00:12:43.454Z,1.75
2023-01-10T00:15:10.904Z,5.00
2023-01-10T00:17:37.534Z,2.75
2023-01-10T00:20:06.599Z,2.00
2023-01-10T00:22:33.207Z,9.25
2023-01-10T00:24:59.883Z,3.75
2023-01-10T00:27:26.471Z,2.00
2023-01-10T00:29:53.356Z,4.00
2023-01-10T00:32:20.715Z,6.25
2023-01-10T00:34:47.539Z,2.50
2023-01-10T00:37:15.602Z,8.50
2023-01-10T00:39:42.266Z,2.75
2023-01-10T00:42:10.035Z,11.50
2023-01-10T00:44:39.532Z,4.25
2023-01-10T00:47:06.753Z,2.25
2023-01-10T00:49:33.395Z,2.00
2023-01-10T00:52:00.116Z,7.25
2023-01-10T00:54:28.235Z,3.00
2023-01-10T00:56:54.943Z,9.25
2023-01-10T00:59:21.872Z,1.00
2023-01-10T01:01:48.752Z,6.50
2023-01-10T01:04:15.758Z,8.00
2023-01-10T01:06:43.990Z,14.50
2023-01-10T01:09:10.667Z,3.25
2023-01-10T01:11:38.755Z,221.75
2023-01-10T01:14:07.456Z,6.25
2023-01-10T01:16:34.139Z,10.75
2023-01-10T01:19:00.767Z,12.75
2023-01-10T01:21:27.392Z,12.25
2023-01-10T01:23:54.552Z,7.50
2023-01-10T01:26:21.163Z,4.50
2023-01-10T01:28:49.281Z,6.00
2023-01-10T01:31:16.075Z,9.50
2023-01-10T01:33:42.911Z,8.00
2023-01-10T01:36:11.085Z,8.50
2023-01-10T01:38:37.990Z,3.75
2023-01-10T01:41:07.853Z,8.25
2023-01-10T01:43:59.673Z,7.25
2023-01-10T01:46:26.757Z,6.75
2023-01-10T01:48:55.581Z,7.50
2023-01-10T01:51:26.922Z,5.75
2023-01-10T01:53:57.970Z,3.25
2023-01-10T01:56:29.780Z,4.75
2023-01-10T01:59:07.209Z,8.75
2023-01-10T02:01:36.034Z,4.75
2023-01-10T02:04:10.517Z,2.00
2023-01-10T02:06:38.035Z,8.50
2023-01-10T02:09:16.651Z,3.50
2023-01-10T02:11:43.309Z,1.00
2023-01-10T02:14:14.033Z,6.75
2023-01-10T02:16:40.809Z,3.00
2023-01-10T02:19:16.362Z,12.50
2023-01-10T02:22:09.174Z,5.25
2023-01-10T02:25:03.210Z,2.50
2023-01-10T02:27:41.178Z,5.50
2023-01-10T02:30:41.697Z,9.25
2023-01-10T02:33:19.184Z,3.00
2023-01-10T02:36:01.558Z,4.50
2023-01-10T02:38:36.537Z,10.00
2023-01-10T02:41:12.643Z,8.00
2023-01-10T02:43:45.495Z,3.00
2023-01-10T02:46:16.913Z,3.50
2023-01-10T02:48:45.058Z,19.25
2023-01-10T02:51:18.848Z,7.25
2023-01-10T02:53:49.309Z,2.25
2023-01-10T02:56:40.351Z,3.50
2023-01-10T02:59:32.975Z,9.25
2023-01-10T03:02:11.052Z,2.50
2023-01-10T03:04:51.407Z,5.25
2023-01-10T03:07:24.182Z,8.00
2023-01-10T03:09:56.155Z,3.00
2023-01-10T03:12:31.571Z,1.75
2023-01-10T03:15:00.696Z,10.50
2023-01-10T03:17:30.271Z,2.25
2023-01-10T03:20:02.423Z,3.00
2023-01-10T03:22:31.263Z,1.75
2023-01-10T03:25:01.034Z,2.00
2023-01-10T03:27:33.355Z,6.25
2023-01-10T03:30:06.498Z,3.75
2023-01-10T03:32:34.199Z,6.00
2023-01-10T03:35:03.437Z,10.50
2023-01-10T03:37:37.182Z,2.00
2023-01-10T03:40:09.387Z,13.75
2023-01-10T03:42:47.582Z,14.50
2023-01-10T03:45:15.695Z,3.00
2023-01-10T03:47:46.740Z,3.00
2023-01-10T03:50:19.904Z,3.00
2023-01-10T03:52:46.588Z,6.00
2023-01-10T03:55:15.678Z,4.00
2023-01-10T03:57:42.673Z,3.00
2023-01-10T04:00:10.627Z,8.50
2023-01-10T04:02:37.426Z,4.25
2023-01-10T04:05:08.012Z,3.00
2023-01-10T04:07:36.099Z,2.25
2023-01-10T04:10:02.982Z,2.25
2023-01-10T04:12:29.602Z,0.25
2023-01-10T04:14:56.326Z,3.25
2023-01-10T04:17:22.999Z,2.00
2023-01-10T04:19:50.225Z,1.00
2023-01-10T04:22:16.873Z,14.25
2023-01-10T04:24:44.937Z,6.00
2023-01-10T04:27:14.407Z,1.00
2023-01-10T04:29:41.094Z,2.50
2023-01-10T04:32:07.830Z,1.50
2023-01-10T04:34:34.535Z,11.75
2023-01-10T04:37:01.198Z,7.25
2023-01-10T04:39:27.894Z,1.50
2023-01-10T04:41:55.954Z,8.75
2023-01-10T04:44:22.697Z,1.00
2023-01-10T04:46:49.345Z,8.50
2023-01-10T04:49:16.413Z,9.25
2023-01-10T04:51:43.064Z,3.25
2023-01-10T04:54:09.753Z,12.50
2023-01-10T04:56:36.442Z,7.00
2023-01-10T04:59:04.526Z,7.25
2023-01-10T05:01:31.270Z,1.50
2023-01-10T05:03:58.090Z,7.00
2023-01-10T05:06:25.047Z,5.75
2023-01-10T05:08:51.728Z,14.25
2023-01-10T05:11:18.436Z,6.75
2023-01-10T05:13:47.141Z,15.25
2023-01-10T05:16:16.428Z,5.00
2023-01-10T05:18:46.041Z,9.50
2023-01-10T05:21:13.691Z,3.50
2023-01-10T05:23:40.894Z,10.00
2023-01-10T05:26:09.044Z,3.25
2023-01-10T05:28:35.714Z,8.50
2023-01-10T05:31:02.792Z,11.50
2023-01-10T05:33:30.825Z,7.75
2023-01-10T05:35:59.327Z,11.75
2023-01-10T05:38:26.027Z,10.50
2023-01-10T05:40:55.463Z,5.00
2023-01-10T05:43:22.272Z,4.00
2023-01-10T05:45:49.082Z,23.25
2023-01-10T05:48:15.778Z,6.00
2023-01-10T05:50:43.908Z,8.75
2023-01-10T05:53:10.834Z,26.75
2023-01-10T05:55:40.457Z,18.75
2023-01-10T05:58:07.144Z,4.00
2023-01-10T06:00:33.831Z,22.25
2023-01-10T06:03:00.602Z,299.67
2023-01-10T06:05:27.275Z,15.50
2023-01-10T06:07:55.297Z,12.00
2023-01-10T06:10:21.940Z,5.75
2023-01-10T06:12:48.636Z,7.75
2023-01-10T06:15:15.719Z,8.25
2023-01-10T06:17:42.387Z,8.00
2023-01-10T06:20:10.461Z,440.00
2023-01-10T06:22:37.121Z,571.33
2023-01-10T06:25:06.181Z,13.00
2023-01-10T06:27:32.936Z,21.25
2023-01-10T06:29:59.587Z,630.50
2023-01-10T06:32:26.273Z,14.25
2023-01-10T06:34:53.103Z,16.75
2023-01-10T06:37:20.327Z,17.00
2023-01-10T06:39:47.115Z,25.00
2023-01-10T06:42:15.210Z,331.25
2023-01-10T06:44:41.875Z,32.33
2023-01-10T06:47:08.533Z,21.33
2023-01-10T06:49:35.152Z,215.50
2023-01-10T06:52:01.755Z,944.00
2023-01-10T06:54:28.469Z,431.25
2023-01-10T06:56:55.199Z,447.00
2023-01-10T06:59:23.245Z,745.00
2023-01-10T07:01:50.308Z,709.33
2023-01-10T07:04:17.033Z,857.00
2023-01-10T07:06:43.714Z,1245.80
2023-01-10T07:09:10.396Z,237.50
2023-01-10T07:11:37.153Z,1609.20
2023-01-10T07:14:04.055Z,943.60
2023-01-10T07:16:32.179Z,1405.80
2023-01-10T07:18:59.748Z,21.67
2023-01-10T07:21:26.695Z,654.50
2023-01-10T07:23:53.401Z,25.00
2023-01-10T07:26:20.211Z,1258.67
2023-01-10T07:28:49.194Z,1243.75
2023-01-10T07:31:16.333Z,360.50
2023-01-10T07:33:44.506Z,46.25
2023-01-10T07:36:11.242Z,2483.25
2023-01-10T07:38:38.716Z,431.00
2023-01-10T07:41:05.807Z,465.60
2023-01-10T07:43:32.975Z,370.40
2023-01-10T07:45:59.907Z,443.25
2023-01-10T07:48:26.646Z,1464.00
2023-01-10T07:50:57.787Z,1172.40
2023-01-10T07:53:25.264Z,1658.20
2023-01-10T07:55:51.919Z,1054.00
2023-01-10T07:58:19.322Z,1797.40
2023-01-10T08:00:46.549Z,1141.25
2023-01-10T08:03:13.541Z,1735.80
2023-01-10T08:05:40.950Z,2657.75
2023-01-10T08:08:10.800Z,1899.20
2023-01-10T08:10:39.044Z,1842.25
2023-01-10T08:13:17.774Z,2962.25
2023-01-10T08:15:45.387Z,1818.00
2023-01-10T08:18:12.095Z,1591.80
2023-01-10T08:20:38.727Z,2423.00
2023-01-10T08:23:05.420Z,3333.40
2023-01-10T08:25:33.429Z,1963.25
2023-01-10T08:28:00.106Z,2248.20
2023-01-10T08:30:26.801Z,2416.60
2023-01-10T08:32:53.533Z,2710.20
2023-01-10T08:35:20.207Z,1753.20
2023-01-10T08:37:46.870Z,1289.40
2023-01-10T08:40:13.723Z,2857.80
2023-01-10T08:42:41.740Z,1969.40
2023-01-10T08:45:09.438Z,2190.60
2023-01-10T08:47:36.079Z,1865.20
2023-01-10T08:50:02.817Z,2228.25
2023-01-10T08:52:29.445Z,1707.20
2023-01-10T08:54:56.088Z,1251.00
2023-01-10T08:57:22.742Z,3060.75
2023-01-10T08:59:50.783Z,1971.00
2023-01-10T09:02:17.512Z,2592.60
2023-01-10T09:04:44.213Z,3165.80
2023-01-10T09:07:11.190Z,1667.25
2023-01-10T09:09:37.858Z,2846.00
2023-01-10T09:12:04.903Z,2925.25
2023-01-10T09:14:31.629Z,3115.00
2023-01-10T09:16:59.712Z,2341.75
2023-01-10T09:19:26.354Z,2511.80
2023-01-10T09:21:53.015Z,2818.60
2023-01-10T09:24:19.624Z,2171.40
2023-01-10T09:26:46.277Z,2038.00
2023-01-10T09:29:13.026Z,3014.25
2023-01-10T09:31:39.782Z,2723.25
2023-01-10T09:34:07.846Z,2803.40
2023-01-10T09:36:34.557Z,3697.75
2023-01-10T09:39:01.235Z,2670.20
2023-01-10T09:41:53.740Z,2891.80
2023-01-10T09:44:33.607Z,2221.75
2023-01-10T09:47:21.144Z,3764.25
2023-01-10T09:50:00.127Z,3529.40
2023-01-10T09:52:30.399Z,3277.75
2023-01-10T09:55:00.026Z,2904.00
2023-01-10T09:57:26.989Z,2512.20
2023-01-10T09:59:53.877Z,3951.40
2023-01-10T10:02:29.339Z,3295.75
2023-01-10T10:05:08.502Z,3838.25
2023-01-10T10:07:35.640Z,3866.75
2023-01-10T10:10:02.430Z,2507.25
2023-01-10T10:12:37.882Z,3322.60
2023-01-10T10:15:20.155Z,3563.25
2023-01-10T10:17:57.317Z,3369.25
2023-01-10T10:20:39.600Z,3649.50
2023-01-10T10:23:21.150Z,3181.50
2023-01-10T10:26:00.997Z,3467.75
2023-01-10T10:29:03.889Z,2126.60
2023-01-10T10:32:01.222Z,3396.80
2023-01-10T10:34:31.287Z,2485.00
2023-01-10T10:37:03.524Z,3457.80
2023-01-10T10:39:36.772Z,2760.40
2023-01-10T10:42:10.766Z,2680.00
2023-01-10T10:44:41.793Z,3662.60
2023-01-10T10:47:15.082Z,3863.20
2023-01-10T10:49:47.095Z,3106.20
2023-01-10T10:52:22.791Z,3572.60
2023-01-10T10:54:49.775Z,3701.00
2023-01-10T10:57:16.808Z,2806.60
2023-01-10T10:59:46.496Z,3889.40
2023-01-10T11:02:24.246Z,3526.80
2023-01-10T11:04:54.515Z,2559.20
2023-01-10T11:07:23.380Z,3117.80
2023-01-10T11:09:52.588Z,3270.20
2023-01-10T11:12:25.865Z,3737.80
2023-01-10T11:14:52.608Z,2649.20
2023-01-10T11:17:22.273Z,3583.80
2023-01-10T11:19:56.442Z,3196.25
2023-01-10T11:22:25.426Z,3208.50
2023-01-10T11:24:54.690Z,3688.40
2023-01-10T11:27:24.205Z,3392.80
2023-01-10T11:29:53.059Z,3295.60
2023-01-10T11:32:23.435Z,3076.40
2023-01-10T11:34:53.601Z,2787.50
2023-01-10T11:37:22.714Z,3685.00
2023-01-10T11:40:14.884Z,3369.75
2023-01-10T11:42:42.316Z,3812.00
2023-01-10T11:45:23.575Z,2556.20
2023-01-10T11:47:54.805Z,3273.75
2023-01-10T11:50:24.634Z,3822.75
2023-01-10T11:52:52.050Z,3052.00
2023-01-10T11:55:22.985Z,3830.00
2023-01-10T11:58:02.879Z,3828.20
2023-01-10T12:00:38.227Z,3786.80
2023-01-10T12:03:17.100Z,3321.80
2023-01-10T12:05:51.593Z,3751.00
2023-01-10T12:08:31.340Z,3800.40
2023-01-10T12:11:02.826Z,3784.25
2023-01-10T12:13:30.668Z,3783.40
2023-01-10T12:16:16.685Z,3793.20
2023-01-10T12:18:43.372Z,3566.20
2023-01-10T12:21:13.380Z,3808.60
2023-01-10T12:23:42.180Z,3776.20
2023-01-10T12:26:12.419Z,3603.00
2023-01-10T12:28:43.019Z,3768.00
2023-01-10T12:31:13.843Z,3406.00
2023-01-10T12:33:44.679Z,3741.40
2023-01-10T12:36:21.534Z,3371.80
2023-01-10T12:38:57.573Z,3756.50
2023-01-10T12:41:33.876Z,3392.75
2023-01-10T12:44:02.953Z,3663.00
2023-01-10T12:47:05.292Z,3717.20
2023-01-10T12:49:29.138Z,3717.50
2023-01-10T12:52:00.977Z,3721.75
2023-01-10T12:54:30.302Z,3000.00
2023-01-10T12:57:05.102Z,3717.75
2023-01-10T12:59:38.106Z,3368.20
2023-01-10T13:02:07.172Z,3056.20
2023-01-10T13:04:37.804Z,3674.60
2023-01-10T13:07:05.222Z,3687.25
2023-01-10T13:09:32.994Z,3391.40
2023-01-10T13:12:08.257Z,3687.25
2023-01-10T13:14:42.357Z,3681.00
2023-01-10T13:17:19.995Z,2974.00
2023-01-10T13:20:21.962Z,3685.80
2023-01-10T13:22:50.315Z,3664.00
2023-01-10T13:25:22.818Z,3077.60
2023-01-10T13:27:57.551Z,3646.40
2023-01-10T13:30:28.474Z,3634.20
2023-01-10T13:33:03.040Z,3297.80
2023-01-10T13:35:39.777Z,3364.75
2023-01-10T13:38:16.679Z,3647.50
2023-01-10T13:40:57.194Z,3354.00
2023-01-10T13:43:59.302Z,3420.60
2023-01-10T13:46:46.964Z,3639.75
2023-01-10T13:49:39.615Z,2771.00
2023-01-10T13:52:30.775Z,2116.40
2023-01-10T13:54:58.871Z,3260.75
2023-01-10T13:57:51.937Z,3260.40
2023-01-10T14:00:27.032Z,3604.00
2023-01-10T14:02:53.749Z,2343.40
2023-01-10T14:05:23.316Z,3602.50
2023-01-10T14:07:52.296Z,3336.60
2023-01-10T14:10:22.688Z,2135.80
2023-01-10T14:12:52.523Z,3617.80
2023-01-10T14:15:26.388Z,3622.60
2023-01-10T14:18:05.630Z,3613.20
2023-01-10T14:20:34.920Z,2982.00
2023-01-10T14:23:05.607Z,3253.60
2023-01-10T14:25:34.561Z,3607.60
2023-01-10T14:28:02.300Z,3251.50
2023-01-10T14:30:32.884Z,3623.75
2023-01-10T14:33:07.009Z,3241.50
2023-01-10T14:35:37.906Z,3256.00
2023-01-10T14:38:06.944Z,3606.75
2023-01-10T14:40:38.992Z,3044.20
2023-01-10T14:43:09.480Z,2985.00
2023-01-10T14:45:43.609Z,3061.75
2023-01-10T14:48:28.527Z,3473.60
2023-01-10T14:51:08.354Z,3590.20
2023-01-10T14:53:35.315Z,3596.75
2023-01-10T14:56:02.072Z,1821.40
2023-01-10T14:58:28.831Z,2388.00
2023-01-10T15:00:57.585Z,3015.80
2023-01-10T15:03:25.923Z,1122.00
2023-01-10T15:05:54.578Z,3563.00
2023-01-10T15:08:24.181Z,3220.60
2023-01-10T15:10:54.718Z,3198.00
2023-01-10T15:13:25.029Z,3208.75
2023-01-10T15:15:52.534Z,2809.00
2023-01-10T15:18:30.156Z,3416.75
2023-01-10T15:20:57.919Z,2609.80
2023-01-10T15:23:24.551Z,2531.50
2023-01-10T15:25:56.612Z,2970.75
2023-01-10T15:28:23.386Z,2535.60
2023-01-10T15:30:50.671Z,3541.00
2023-01-10T15:33:21.759Z,1981.75
2023-01-10T15:35:49.990Z,3288.75
2023-01-10T15:38:20.694Z,1907.00
2023-01-10T15:40:55.163Z,2520.80
2023-01-10T15:43:25.200Z,2889.40
2023-01-10T15:45:53.349Z,3234.50
2023-01-10T15:48:28.747Z,1594.40
2023-01-10T15:50:58.455Z,2548.60
2023-01-10T15:53:57.098Z,1529.60
2023-01-10T15:56:27.998Z,2447.00
2023-01-10T15:58:56.630Z,2509.40
2023-01-10T16:01:24.124Z,3206.50
2023-01-10T16:03:53.506Z,2518.40
2023-01-10T16:06:24.078Z,3140.40
2023-01-10T16:08:53.148Z,3229.80
2023-01-10T16:11:23.376Z,3216.00
2023-01-10T16:13:50.145Z,2950.60
2023-01-10T16:16:19.739Z,3442.80
2023-01-10T16:18:46.492Z,3235.00
2023-01-10T16:21:13.869Z,3075.80
2023-01-10T16:23:44.119Z,3577.75
2023-01-10T16:26:10.862Z,3003.00
2023-01-10T16:28:37.529Z,3297.00
2023-01-10T16:31:06.768Z,2817.60
2023-01-10T16:33:34.002Z,3320.00
2023-01-10T16:36:01.154Z,61.80
2023-01-10T16:38:29.185Z,2793.00
2023-01-10T16:40:59.952Z,762.40
2023-01-10T16:43:27.119Z,2905.00
2023-01-10T16:45:55.238Z,3466.60
2023-01-10T16:48:22.414Z,3607.60
2023-01-10T16:50:49.215Z,2606.80
2023-01-10T16:53:17.696Z,3576.00
2023-01-10T16:55:46.162Z,3323.00
2023-01-10T16:58:15.490Z,3136.50
2023-01-10T17:00:44.877Z,2981.40
2023-01-10T17:03:14.849Z,3259.60
2023-01-10T17:05:42.008Z,3399.80
2023-01-10T17:08:15.614Z,3243.75
2023-01-10T17:10:43.216Z,3113.40
2023-01-10T17:13:12.182Z,2950.80
2023-01-10T17:15:40.260Z,3593.20
2023-01-10T17:18:07.027Z,3591.60
2023-01-10T17:20:33.704Z,3239.80
2023-01-10T17:23:00.328Z,3182.60
2023-01-10T17:25:26.971Z,3525.40
2023-01-10T17:27:53.592Z,3593.20
2023-01-10T17:30:20.383Z,3607.60
2023-01-10T17:32:48.427Z,3109.20
2023-01-10T17:35:15.081Z,2039.60
2023-01-10T17:37:41.830Z,2912.00
2023-01-10T17:40:10.385Z,3609.20
2023-01-10T17:42:37.025Z,3439.20
2023-01-10T17:45:04.310Z,78.40
2023-01-10T17:47:31.026Z,3220.20
2023-01-10T17:49:59.074Z,3583.75
2023-01-10T17:52:25.747Z,2680.60
2023-01-10T17:54:52.429Z,3575.00
2023-01-10T17:57:19.157Z,2966.60
2023-01-10T17:59:45.779Z,2670.40
2023-01-10T18:02:17.313Z,3231.25
2023-01-10T18:04:44.579Z,3368.80
2023-01-10T18:07:13.165Z,3563.00
2023-01-10T18:09:40.204Z,3591.25
2023-01-10T18:12:07.142Z,2948.80
2023-01-10T18:14:33.885Z,3577.75
2023-01-10T18:17:00.593Z,3514.80
2023-01-10T18:19:27.463Z,3578.20
2023-01-10T18:21:54.103Z,2529.80
2023-01-10T18:24:22.164Z,3512.60
2023-01-10T18:26:49.098Z,2677.60
2023-01-10T18:29:15.717Z,3496.00
2023-01-10T18:31:42.436Z,3086.00
2023-01-10T18:34:09.449Z,3162.20
2023-01-10T18:36:36.165Z,3449.80
2023-01-10T18:39:03.088Z,2247.40
2023-01-10T18:41:31.388Z,1774.20
2023-01-10T18:43:58.027Z,2954.25
2023-01-10T18:46:24.779Z,2534.00
2023-01-10T18:48:52.267Z,2242.60
2023-01-10T18:51:18.928Z,3376.20
2023-01-10T18:53:46.024Z,2047.40
2023-01-10T18:56:12.697Z,2178.80
2023-01-10T18:58:42.088Z,3042.80
2023-01-10T19:01:11.278Z,2970.00
2023-01-10T19:03:39.018Z,2210.00
2023-01-10T19:06:07.881Z,2178.25
2023-01-10T19:08:34.773Z,2547.60
2023-01-10T19:11:13.334Z,95.60
2023-01-10T19:13:43.176Z,458.40
2023-01-10T19:16:12.094Z,2809.25
2023-01-10T19:18:38.867Z,2122.00
2023-01-10T19:21:05.749Z,2298.00
2023-01-10T19:23:33.001Z,2488.20
2023-01-10T19:25:59.852Z,70.60
2023-01-10T19:28:29.553Z,2153.60
2023-01-10T19:31:05.386Z,2924.75
2023-01-10T19:33:32.394Z,3104.00
2023-01-10T19:35:59.066Z,2865.00
2023-01-10T19:38:25.787Z,3299.80
2023-01-10T19:40:53.100Z,3673.00
2023-01-10T19:43:19.849Z,3653.80
2023-01-10T19:45:48.201Z,2664.50
2023-01-10T19:48:16.396Z,2660.60
2023-01-10T19:50:43.058Z,1389.00
2023-01-10T19:53:09.771Z,2229.60
2023-01-10T19:55:36.431Z,3107.00
2023-01-10T19:58:03.096Z,2050.25
2023-01-10T20:00:30.081Z,2606.00
2023-01-10T20:02:56.865Z,2536.80
2023-01-10T20:05:24.922Z,1733.60
2023-01-10T20:07:51.964Z,2228.25
2023-01-10T20:10:19.015Z,3252.20
2023-01-10T20:12:45.756Z,1086.00
2023-01-10T20:15:12.563Z,403.40
2023-01-10T20:17:39.235Z,234.00
2023-01-10T20:20:06.548Z,863.40
2023-01-10T20:22:34.576Z,51.50
2023-01-10T20:25:01.331Z,274.00
2023-01-10T20:27:28.855Z,425.60
2023-01-10T20:29:55.549Z,66.60
2023-01-10T20:32:22.318Z,983.00
2023-01-10T20:34:48.971Z,1233.60
2023-01-10T20:37:15.639Z,781.60
2023-01-10T20:39:43.694Z,634.20
2023-01-10T20:42:10.332Z,418.75
2023-01-10T20:44:37.034Z,632.00
2023-01-10T20:47:03.725Z,1145.40
2023-01-10T20:49:30.412Z,2182.60
2023-01-10T20:51:57.064Z,401.00
2023-01-10T20:54:23.724Z,652.00
2023-01-10T20:56:51.712Z,789.00
2023-01-10T20:59:18.357Z,39.33
2023-01-10T21:01:45.116Z,781.40
2023-01-10T21:04:11.806Z,522.67
2023-01-10T21:06:38.473Z,493.80
2023-01-10T21:09:05.846Z,47.75
2023-01-10T21:11:41.063Z,1615.25
2023-01-10T21:14:15.716Z,37.50
2023-01-10T21:16:42.368Z,34.00
2023-01-10T21:19:09.002Z,37.00
2023-01-10T21:21:35.608Z,41.67
2023-01-10T21:24:02.294Z,407.67
2023-01-10T21:26:28.931Z,1704.25
2023-01-10T21:28:55.571Z,776.67
2023-01-10T21:31:23.596Z,936.60
2023-01-10T21:33:50.303Z,361.60
2023-01-10T21:36:17.563Z,426.40
2023-01-10T21:38:44.259Z,222.50
2023-01-10T21:41:13.030Z,1466.00
2023-01-10T21:43:41.013Z,184.20
2023-01-10T21:46:09.097Z,557.20
2023-01-10T21:48:37.105Z,1720.00
2023-01-10T21:51:03.920Z,772.60
2023-01-10T21:53:30.605Z,691.75
2023-01-10T21:55:58.087Z,136.75
2023-01-10T21:58:24.820Z,1167.40
2023-01-10T22:00:55.171Z,52.00
2023-01-10T22:03:21.912Z,789.20
2023-01-10T22:05:50.028Z,1391.40
2023-01-10T22:08:16.723Z,622.75
2023-01-10T22:10:43.372Z,1156.50
2023-01-10T22:13:10.050Z,91.80
2023-01-10T22:15:36.981Z,1613.00
2023-01-10T22:18:03.939Z,770.80
2023-01-10T22:20:30.970Z,290.50
2023-01-10T22:22:59.169Z,1464.00
2023-01-10T22:25:25.826Z,1077.25
2023-01-10T22:27:52.610Z,37.25
2023-01-10T22:30:19.484Z,410.67
2023-01-10T22:32:46.191Z,31.67
2023-01-10T22:35:12.958Z,126.25
2023-01-10T22:37:39.711Z,32.50
2023-01-10T22:40:09.385Z,640.75
2023-01-10T22:42:36.122Z,30.67
2023-01-10T22:45:02.926Z,1435.00
2023-01-10T22:47:29.569Z,534.33
2023-01-10T22:49:56.262Z,213.50
2023-01-10T22:52:22.931Z,322.75
2023-01-10T22:54:49.694Z,653.60
2023-01-10T22:57:17.782Z,42.33
2023-01-10T22:59:44.419Z,40.33
2023-01-10T23:02:11.098Z,217.50
2023-01-10T23:04:37.785Z,428.00
2023-01-10T23:07:04.471Z,394.67
2023-01-10T23:09:31.201Z,412.67
2023-01-10T23:11:58.012Z,550.00
2023-01-10T23:14:26.266Z,36.00
2023-01-10T23:16:52.988Z,271.67
2023-01-10T23:19:19.693Z,38.33
2023-01-10T23:21:46.439Z,585.20
2023-01-10T23:24:13.148Z,136.25
2023-01-10T23:26:39.869Z,648.00
2023-01-10T23:29:06.525Z,42.67
2023-01-10T23:31:34.565Z,403.33
2023-01-10T23:34:01.299Z,12.00
2023-01-10T23:36:28.018Z,35.75
2023-01-10T23:38:54.688Z,431.00
2023-01-10T23:41:21.482Z,37.67
2023-01-10T23:43:49.054Z,161.67
2023-01-10T23:46:16.249Z,415.33
2023-01-10T23:48:44.431Z,40.00
2023-01-10T23:51:11.192Z,41.00
2023-01-10T23:53:37.877Z,804.50
2023-01-10T23:56:09.540Z,59.80
2023-01-10T23:58:36.561Z,234.75
